Valle Escondido, New Mexico
Current Conditions -  °F | °C
As of 7:35 AM on Tuesday 27 Jan 2015 (Local Time) from KSKX Reporting Station
Clear Clear  
Wind Chill: 17°   Ceiling: Unl
Heat Index: 25°   Visibility: 10mi
Dew Point: 19°   Wind: 7mph
Humidity: 80%   Direction: 10°N
Pressure: 30.4"   Gusts: NA
Location:  36.4227°N, 105.509°W
Report Text: KSKX 271435Z AUTO 01006KT 10SM CLR M04/M07 A3040 RMK AO1
Loading
Personal Weather Stations






























Interactive Weather Map New forecast layout! Learn more

10-Day Weather Forecast

Advertisements
Track Severe Weather on mobile